createdAt,value
2016-09-01T00:00:42.276Z,959.19
2016-09-01T00:01:42.270Z,959.19
2016-09-01T00:02:42.269Z,959.22
2016-09-01T00:03:42.259Z,959.18
2016-09-01T00:04:42.255Z,959.17
2016-09-01T00:05:42.255Z,959.22
2016-09-01T00:06:42.247Z,959.2
2016-09-01T00:07:42.240Z,959.18
2016-09-01T00:08:42.237Z,959.18
2016-09-01T00:09:42.231Z,959.2
2016-09-01T00:10:42.228Z,959.15
2016-09-01T00:11:42.221Z,959.25
2016-09-01T00:12:42.215Z,959.21
2016-09-01T00:13:42.213Z,959.21
2016-09-01T00:14:42.209Z,959.22
2016-09-01T00:15:42.202Z,959.17
2016-09-01T00:16:42.194Z,959.17
2016-09-01T00:17:42.204Z,959.16
2016-09-01T00:18:42.187Z,959.2
2016-09-01T00:19:42.179Z,959.14
2016-09-01T00:20:42.175Z,959.16
2016-09-01T00:21:42.167Z,959.16
2016-09-01T00:22:42.166Z,959.13
2016-09-01T00:23:42.158Z,959.14
2016-09-01T00:24:42.155Z,959.17
2016-09-01T00:25:42.148Z,959.16
2016-09-01T00:26:42.141Z,959.22
2016-09-01T00:27:42.135Z,959.18
2016-09-01T00:28:42.136Z,959.21
2016-09-01T00:29:42.129Z,959.22
2016-09-01T00:30:42.121Z,959.21
2016-09-01T00:31:42.118Z,959.23
2016-09-01T00:32:42.113Z,959.25
2016-09-01T00:33:42.109Z,959.23
2016-09-01T00:34:42.102Z,959.19
2016-09-01T00:35:42.102Z,959.22
2016-09-01T00:36:42.089Z,959.23
2016-09-01T00:37:42.083Z,959.18
2016-09-01T00:38:42.079Z,959.23
2016-09-01T00:39:42.077Z,959.2
2016-09-01T00:40:42.069Z,959.22
2016-09-01T00:41:42.063Z,959.21
2016-09-01T00:42:42.059Z,959.22
2016-09-01T00:43:42.055Z,959.21
2016-09-01T00:44:42.046Z,959.21
2016-09-01T00:45:42.039Z,959.18
2016-09-01T00:46:42.037Z,959.19
2016-09-01T00:47:42.032Z,959.16
2016-09-01T00:48:42.026Z,959.21
2016-09-01T00:49:42.021Z,959.21
2016-09-01T00:50:42.014Z,959.2
2016-09-01T00:51:42.011Z,959.2
2016-09-01T00:52:42.003Z,959.24
2016-09-01T00:53:41.999Z,959.25
2016-09-01T00:54:41.995Z,959.21
2016-09-01T00:55:41.988Z,959.25
2016-09-01T00:56:41.984Z,959.26
2016-09-01T00:57:41.978Z,959.22
2016-09-01T00:58:41.972Z,959.25
2016-09-01T00:59:41.967Z,959.22
2016-09-01T01:00:41.978Z,959.26
2016-09-01T01:01:41.955Z,959.2
2016-09-01T01:02:41.952Z,959.23
2016-09-01T01:03:41.944Z,959.23
2016-09-01T01:04:41.938Z,959.26
2016-09-01T01:05:41.932Z,959.23
2016-09-01T01:06:41.926Z,959.26
2016-09-01T01:07:41.922Z,959.22
2016-09-01T01:08:41.916Z,959.22
2016-09-01T01:09:41.912Z,959.19
2016-09-01T01:10:41.904Z,959.21
2016-09-01T01:11:41.900Z,959.2
2016-09-01T01:12:41.896Z,959.21
2016-09-01T01:13:41.887Z,959.19
2016-09-01T01:14:41.886Z,959.19
2016-09-01T01:15:41.875Z,959.21
2016-09-01T01:16:41.872Z,959.24
2016-09-01T01:17:41.865Z,959.22
2016-09-01T01:18:41.865Z,959.21
2016-09-01T01:19:41.858Z,959.18
2016-09-01T01:20:41.854Z,959.19
2016-09-01T01:21:41.843Z,959.19
2016-09-01T01:22:41.837Z,959.2
2016-09-01T01:23:41.830Z,959.21
2016-09-01T01:24:41.822Z,959.21
2016-09-01T01:25:41.818Z,959.22
2016-09-01T01:26:41.814Z,959.27
2016-09-01T01:27:41.807Z,959.24
2016-09-01T01:28:41.810Z,959.21
2016-09-01T01:29:41.799Z,959.21
2016-09-01T01:30:41.794Z,959.21
2016-09-01T01:31:41.785Z,959.2
2016-09-01T01:32:41.798Z,959.21
2016-09-01T01:33:41.773Z,959.18
2016-09-01T01:34:41.784Z,959.17
2016-09-01T01:35:41.763Z,959.16
2016-09-01T01:36:41.760Z,959.16
2016-09-01T01:37:41.753Z,959.14
2016-09-01T01:38:41.746Z,959.13
2016-09-01T01:39:41.741Z,959.14
2016-09-01T01:40:41.735Z,959.1
2016-09-01T01:41:41.729Z,959.14
2016-09-01T01:42:41.721Z,959.13
2016-09-01T01:43:41.717Z,959.12
2016-09-01T01:44:41.714Z,959.12
2016-09-01T01:45:41.701Z,959.17
2016-09-01T01:46:41.705Z,959.15
2016-09-01T01:47:41.696Z,959.12
2016-09-01T01:48:41.689Z,959.11
2016-09-01T01:49:41.682Z,959.13
2016-09-01T01:50:41.675Z,959.12
2016-09-01T01:51:41.669Z,959.1
2016-09-01T01:52:41.664Z,959.14
2016-09-01T01:53:41.663Z,959.18
2016-09-01T01:54:41.662Z,959.15
2016-09-01T01:55:41.645Z,959.17
2016-09-01T01:56:41.640Z,959.16
2016-09-01T01:57:41.633Z,959.18
2016-09-01T01:58:41.627Z,959.13
2016-09-01T01:59:41.623Z,959.16
2016-09-01T02:00:41.620Z,959.17
2016-09-01T02:01:41.610Z,959.13
2016-09-01T02:02:41.605Z,959.15
2016-09-01T02:03:41.597Z,959.17
2016-09-01T02:04:41.594Z,959.16
2016-09-01T02:05:41.585Z,959.13
2016-09-01T02:06:41.580Z,959.14
2016-09-01T02:07:41.572Z,959.15
2016-09-01T02:08:41.570Z,959.13
2016-09-01T02:09:41.565Z,959.11
2016-09-01T02:10:41.558Z,959.12
2016-09-01T02:11:41.549Z,959.09
2016-09-01T02:12:41.544Z,959.06
2016-09-01T02:13:41.538Z,959.07
2016-09-01T02:14:41.533Z,959.05
2016-09-01T02:15:41.523Z,959.09
2016-09-01T02:16:41.520Z,959.07
2016-09-01T02:17:41.515Z,959.09
2016-09-01T02:18:41.508Z,959.09
2016-09-01T02:19:41.515Z,959.08
2016-09-01T02:20:41.492Z,959.09
2016-09-01T02:21:41.487Z,959.09
2016-09-01T02:22:41.493Z,959.13
2016-09-01T02:23:41.480Z,959.08
2016-09-01T02:24:41.512Z,959.12
2016-09-01T02:25:41.464Z,959.09
2016-09-01T02:26:41.456Z,959.14
2016-09-01T02:27:41.452Z,959.1
2016-09-01T02:28:41.444Z,959.13
2016-09-01T02:29:41.437Z,959.09
2016-09-01T02:30:41.430Z,959.08
2016-09-01T02:31:41.429Z,959.1
2016-09-01T02:32:41.421Z,959.05
2016-09-01T02:33:41.411Z,959.05
2016-09-01T02:34:41.407Z,959.11
2016-09-01T02:35:41.398Z,959.06
2016-09-01T02:36:41.393Z,959.08
2016-09-01T02:37:41.389Z,959.09
2016-09-01T02:38:41.378Z,959.07
2016-09-01T02:39:41.378Z,959.07
2016-09-01T02:40:41.367Z,959.05
2016-09-01T02:41:41.360Z,959.05
2016-09-01T02:42:41.354Z,959.06
2016-09-01T02:43:41.353Z,959.05
2016-09-01T02:44:41.343Z,959.04
2016-09-01T02:45:41.333Z,959.04
2016-09-01T02:46:41.330Z,959.01
2016-09-01T02:47:41.322Z,959.01
2016-09-01T02:48:41.314Z,959.02
2016-09-01T02:49:41.309Z,959.01
2016-09-01T02:50:41.302Z,959.01
2016-09-01T02:51:41.298Z,959.02
2016-09-01T02:52:41.289Z,959.07
2016-09-01T02:53:41.282Z,959.03
2016-09-01T02:54:41.283Z,959.08
2016-09-01T02:55:41.283Z,959.07
2016-09-01T02:56:41.263Z,959.06
2016-09-01T02:57:41.257Z,959.07
2016-09-01T02:58:41.249Z,959.08
2016-09-01T02:59:41.247Z,959.12
2016-09-01T03:00:41.236Z,959.15
2016-09-01T03:01:41.237Z,959.15
2016-09-01T03:02:41.225Z,959.14
2016-09-01T03:03:41.217Z,959.14
2016-09-01T03:04:41.211Z,959.14
2016-09-01T03:05:41.206Z,959.13
2016-09-01T03:06:41.197Z,959.16
2016-09-01T03:07:41.191Z,959.12
2016-09-01T03:08:41.184Z,959.14
2016-09-01T03:09:41.182Z,959.16
2016-09-01T03:10:41.172Z,959.14
2016-09-01T03:11:41.163Z,959.12
2016-09-01T03:12:41.157Z,959.13
2016-09-01T03:13:41.151Z,959.13
2016-09-01T03:14:41.150Z,959.11
2016-09-01T03:15:41.144Z,959.09
2016-09-01T03:16:41.136Z,959.12
2016-09-01T03:17:41.134Z,959.13
2016-09-01T03:18:41.119Z,959.12
2016-09-01T03:19:41.110Z,959.13
2016-09-01T03:20:41.102Z,959.12
2016-09-01T03:21:41.101Z,959.12
2016-09-01T03:22:41.090Z,959.11
2016-09-01T03:23:41.087Z,959.13
2016-09-01T03:24:41.078Z,959.13
2016-09-01T03:25:41.069Z,959.12
2016-09-01T03:26:41.065Z,959.13
2016-09-01T03:27:41.058Z,959.12
2016-09-01T03:28:41.049Z,959.1
2016-09-01T03:29:41.047Z,959.11
2016-09-01T03:30:41.037Z,959.1
2016-09-01T03:31:41.035Z,959.06
2016-09-01T03:32:41.029Z,959.07
2016-09-01T03:33:41.021Z,959.09
2016-09-01T03:34:41.013Z,959.1
2016-09-01T03:35:41.005Z,959.07
2016-09-01T03:36:40.994Z,959.07
2016-09-01T03:37:40.992Z,959.08
2016-09-01T03:38:41.010Z,959.1
2016-09-01T03:39:40.979Z,959.05
2016-09-01T03:40:40.986Z,959.07
2016-09-01T03:41:40.967Z,959.08
2016-09-01T03:42:40.955Z,959.06
2016-09-01T03:43:40.956Z,959.01
2016-09-01T03:44:40.958Z,959.02
2016-09-01T03:45:40.955Z,958.99
2016-09-01T03:46:40.945Z,959
2016-09-01T03:47:41.055Z,959.02
2016-09-01T03:48:40.913Z,958.99
2016-09-01T03:49:40.914Z,958.99
2016-09-01T03:50:40.907Z,958.96
2016-09-01T03:51:40.893Z,958.97
2016-09-01T03:52:40.887Z,959
2016-09-01T03:53:40.986Z,958.99
2016-09-01T03:54:40.871Z,958.99
2016-09-01T03:55:40.864Z,958.98
2016-09-01T03:56:40.857Z,958.95
2016-09-01T03:57:40.857Z,958.97
2016-09-01T03:58:40.843Z,958.99
2016-09-01T03:59:40.839Z,958.97
2016-09-01T04:00:40.829Z,958.95
2016-09-01T04:01:40.823Z,958.97
2016-09-01T04:02:40.817Z,958.97
2016-09-01T04:03:40.811Z,958.97
2016-09-01T04:04:40.803Z,958.94
2016-09-01T04:05:40.797Z,958.96
2016-09-01T04:06:40.785Z,958.98
2016-09-01T04:07:40.781Z,958.96
2016-09-01T04:08:40.778Z,958.96
2016-09-01T04:09:40.767Z,958.98
2016-09-01T04:10:40.763Z,958.99
2016-09-01T04:11:40.751Z,958.96
2016-09-01T04:12:40.746Z,958.93
2016-09-01T04:13:40.744Z,958.96
2016-09-01T04:14:40.735Z,958.97
2016-09-01T04:15:40.726Z,959
2016-09-01T04:16:40.922Z,959.02
2016-09-01T04:17:40.712Z,959
2016-09-01T04:18:40.705Z,959.04
2016-09-01T04:19:40.700Z,959.03
2016-09-01T04:20:40.701Z,959.08
2016-09-01T04:21:40.698Z,959.05
2016-09-01T04:22:40.680Z,959.03
2016-09-01T04:23:40.678Z,959.09
2016-09-01T04:24:40.680Z,959.1
2016-09-01T04:25:40.658Z,959.09
2016-09-01T04:26:40.652Z,959.09
2016-09-01T04:27:40.645Z,959.12
2016-09-01T04:28:40.645Z,959.16
2016-09-01T04:29:40.644Z,959.17
2016-09-01T04:30:40.624Z,959.18
2016-09-01T04:31:40.619Z,959.2
2016-09-01T04:32:40.614Z,959.2
2016-09-01T04:33:40.602Z,959.2
2016-09-01T04:34:40.596Z,959.22
2016-09-01T04:35:42.363Z,959.21
2016-09-01T04:36:40.582Z,959.15
2016-09-01T04:37:40.577Z,959.2
2016-09-01T04:38:40.571Z,959.18
2016-09-01T04:39:40.569Z,959.2
2016-09-01T04:40:40.555Z,959.2
2016-09-01T04:41:40.553Z,959.22
2016-09-01T04:42:40.539Z,959.22
2016-09-01T04:43:40.539Z,959.24
2016-09-01T04:44:40.528Z,959.25
2016-09-01T04:45:40.521Z,959.27
2016-09-01T04:46:40.514Z,959.29
2016-09-01T04:47:40.508Z,959.26
2016-09-01T04:48:40.500Z,959.28
2016-09-01T04:49:40.493Z,959.27
2016-09-01T04:50:40.488Z,959.33
2016-09-01T04:51:40.478Z,959.3
2016-09-01T04:52:40.474Z,959.34
2016-09-01T04:53:40.466Z,959.34
2016-09-01T04:54:40.461Z,959.35
2016-09-01T04:55:40.454Z,959.33
2016-09-01T04:56:40.445Z,959.37
2016-09-01T04:57:40.442Z,959.38
2016-09-01T04:58:40.434Z,959.37
2016-09-01T04:59:40.426Z,959.38
2016-09-01T05:00:40.422Z,959.4
2016-09-01T05:01:40.415Z,959.37
2016-09-01T05:02:40.406Z,959.42
2016-09-01T05:03:40.399Z,959.38
2016-09-01T05:04:40.391Z,959.4
2016-09-01T05:05:40.385Z,959.38
2016-09-01T05:06:40.377Z,959.4
2016-09-01T05:07:40.372Z,959.43
2016-09-01T05:08:40.365Z,959.4
2016-09-01T05:09:40.369Z,959.43
2016-09-01T05:10:40.353Z,959.4
2016-09-01T05:11:40.345Z,959.4
2016-09-01T05:12:40.347Z,959.39
2016-09-01T05:13:40.333Z,959.43
2016-09-01T05:14:40.326Z,959.42
2016-09-01T05:15:40.323Z,959.43
2016-09-01T05:16:40.313Z,959.46
2016-09-01T05:17:40.305Z,959.46
2016-09-01T05:18:40.298Z,959.48
2016-09-01T05:19:40.297Z,959.46
2016-09-01T05:20:40.301Z,959.47
2016-09-01T05:21:40.280Z,959.47
2016-09-01T05:22:40.280Z,959.46
2016-09-01T05:23:40.271Z,959.48
2016-09-01T05:24:40.258Z,959.46
2016-09-01T05:25:40.253Z,959.47
2016-09-01T05:26:40.247Z,959.5
2016-09-01T05:27:40.238Z,959.49
2016-09-01T05:28:40.232Z,959.47
2016-09-01T05:29:40.226Z,959.5
2016-09-01T05:30:40.223Z,959.49
2016-09-01T05:31:40.217Z,959.51
2016-09-01T05:32:40.207Z,959.47
2016-09-01T05:33:40.200Z,959.49
2016-09-01T05:34:40.202Z,959.48
2016-09-01T05:35:40.187Z,959.5
2016-09-01T05:36:40.181Z,959.51
2016-09-01T05:37:40.175Z,959.49
2016-09-01T05:38:40.175Z,959.47
2016-09-01T05:39:40.164Z,959.49
2016-09-01T05:40:40.155Z,959.49
2016-09-01T05:41:40.151Z,959.48
2016-09-01T05:42:40.145Z,959.47
2016-09-01T05:43:40.139Z,959.44
2016-09-01T05:44:40.143Z,959.46
2016-09-01T05:45:40.125Z,959.42
2016-09-01T05:46:40.126Z,959.44
2016-09-01T05:47:40.116Z,959.45
2016-09-01T05:48:40.113Z,959.46
2016-09-01T05:49:40.105Z,959.49
2016-09-01T05:50:40.095Z,959.46
2016-09-01T05:51:40.089Z,959.47
2016-09-01T05:52:40.080Z,959.48
2016-09-01T05:53:40.075Z,959.48
2016-09-01T05:54:40.068Z,959.46
2016-09-01T05:55:40.063Z,959.51
2016-09-01T05:56:40.056Z,959.54
2016-09-01T05:57:40.055Z,959.53
2016-09-01T05:58:40.046Z,959.58
2016-09-01T05:59:40.039Z,959.54
2016-09-01T06:00:40.036Z,959.55
2016-09-01T06:01:40.031Z,959.54
2016-09-01T06:02:40.026Z,959.59
2016-09-01T06:03:40.015Z,959.56
2016-09-01T06:04:40.013Z,959.59
2016-09-01T06:05:40.004Z,959.58
2016-09-01T06:06:39.996Z,959.61
2016-09-01T06:07:39.994Z,959.56
2016-09-01T06:08:39.985Z,959.6
2016-09-01T06:09:39.985Z,959.54
2016-09-01T06:10:39.990Z,959.6
2016-09-01T06:11:39.970Z,959.57
2016-09-01T06:12:39.968Z,959.6
2016-09-01T06:13:39.956Z,959.61
2016-09-01T06:14:39.951Z,959.65
2016-09-01T06:15:39.947Z,959.64
2016-09-01T06:16:39.938Z,959.63
2016-09-01T06:17:39.934Z,959.61
2016-09-01T06:18:39.929Z,959.7
2016-09-01T06:19:39.927Z,959.67
2016-09-01T06:20:39.924Z,959.7
2016-09-01T06:21:39.913Z,959.66
2016-09-01T06:22:39.912Z,959.7
2016-09-01T06:23:39.904Z,959.71
2016-09-01T06:24:39.897Z,959.71
2016-09-01T06:25:39.890Z,959.65
2016-09-01T06:26:39.890Z,959.7
2016-09-01T06:27:39.879Z,959.68
2016-09-01T06:28:39.881Z,959.68
2016-09-01T06:29:39.872Z,959.71
2016-09-01T06:30:39.865Z,959.66
2016-09-01T06:31:39.860Z,959.67
2016-09-01T06:32:39.853Z,959.66
2016-09-01T06:33:39.848Z,959.69
2016-09-01T06:34:39.845Z,959.69
2016-09-01T06:35:40.745Z,959.72
2016-09-01T06:36:39.837Z,959.7
2016-09-01T06:37:39.840Z,959.71
2016-09-01T06:38:39.822Z,959.71
2016-09-01T06:39:39.819Z,959.7
2016-09-01T06:40:39.818Z,959.71
2016-09-01T06:41:39.814Z,959.7
2016-09-01T06:42:39.808Z,959.71
2016-09-01T06:43:39.800Z,959.71
2016-09-01T06:44:39.795Z,959.73
2016-09-01T06:45:39.794Z,959.71
2016-09-01T06:46:39.782Z,959.78
2016-09-01T06:47:39.789Z,959.81
2016-09-01T06:48:39.775Z,959.81
2016-09-01T06:49:39.771Z,959.83
2016-09-01T06:50:39.779Z,959.93
2016-09-01T06:51:39.764Z,959.91
2016-09-01T06:52:39.759Z,959.92
2016-09-01T06:53:39.755Z,959.92
2016-09-01T06:54:39.753Z,959.91
2016-09-01T06:55:39.746Z,959.9
2016-09-01T06:56:39.746Z,959.91
2016-09-01T06:57:39.740Z,959.87
2016-09-01T06:58:39.741Z,959.92
2016-09-01T06:59:39.733Z,959.93
2016-09-01T07:00:39.734Z,959.92
2016-09-01T07:01:39.725Z,959.93
2016-09-01T07:02:39.724Z,959.97
2016-09-01T07:03:39.727Z,960
2016-09-01T07:04:39.718Z,959.97
2016-09-01T07:05:39.714Z,960.02
2016-09-01T07:06:39.710Z,960.03
2016-09-01T07:07:39.711Z,960.01
2016-09-01T07:08:39.710Z,960.06
2016-09-01T07:09:39.705Z,959.99
2016-09-01T07:10:39.705Z,960.01
2016-09-01T07:11:39.698Z,960.01
2016-09-01T07:12:39.702Z,960.05
2016-09-01T07:13:39.698Z,960.06
2016-09-01T07:14:39.699Z,960.06
2016-09-01T07:15:39.692Z,960.06
2016-09-01T07:16:39.691Z,960.03
2016-09-01T07:17:39.700Z,960.01
2016-09-01T07:18:39.687Z,960.03
2016-09-01T07:19:39.686Z,960.03
2016-09-01T07:20:39.685Z,960.03
2016-09-01T07:21:39.684Z,960.03
2016-09-01T07:22:39.678Z,960.06
2016-09-01T07:23:39.683Z,960.05
2016-09-01T07:24:39.679Z,960.04
2016-09-01T07:25:39.681Z,960.07
2016-09-01T07:26:39.674Z,960.1
2016-09-01T07:27:39.675Z,960.07
2016-09-01T07:28:39.677Z,960.06
2016-09-01T07:29:39.681Z,960.1
2016-09-01T07:30:39.671Z,960.09
2016-09-01T07:31:39.671Z,960.1
2016-09-01T07:32:39.670Z,960.16
2016-09-01T07:33:39.668Z,960.12
2016-09-01T07:34:39.669Z,960.18
2016-09-01T07:35:39.668Z,960.19
2016-09-01T07:36:39.665Z,960.21
2016-09-01T07:37:39.667Z,960.27
2016-09-01T07:38:39.668Z,960.25
2016-09-01T07:39:39.663Z,960.24
2016-09-01T07:40:39.710Z,960.24
2016-09-01T07:41:39.660Z,960.26
2016-09-01T07:42:39.660Z,960.27
2016-09-01T07:43:39.660Z,960.26
2016-09-01T07:44:39.658Z,960.34
2016-09-01T07:45:39.659Z,960.34
2016-09-01T07:46:39.666Z,960.34
2016-09-01T07:47:39.656Z,960.38
2016-09-01T07:48:39.663Z,960.39
2016-09-01T07:49:39.660Z,960.41
2016-09-01T07:50:39.661Z,960.4
2016-09-01T07:51:39.665Z,960.38
2016-09-01T07:52:39.655Z,960.42
2016-09-01T07:53:39.697Z,960.41
2016-09-01T07:54:39.655Z,960.44
2016-09-01T07:55:39.654Z,960.45
2016-09-01T07:56:39.653Z,960.45
2016-09-01T07:57:39.653Z,960.45
2016-09-01T07:58:39.650Z,960.41
2016-09-01T07:59:39.657Z,960.43
2016-09-01T08:00:39.655Z,960.43
2016-09-01T08:01:39.650Z,960.47
2016-09-01T08:02:39.653Z,960.47
2016-09-01T08:03:39.653Z,960.48
2016-09-01T08:04:39.658Z,960.46
2016-09-01T08:05:39.651Z,960.48
2016-09-01T08:06:39.650Z,960.44
2016-09-01T08:07:39.651Z,960.45
2016-09-01T08:08:39.652Z,960.47
2016-09-01T08:09:39.648Z,960.46
2016-09-01T08:10:39.650Z,960.49
2016-09-01T08:11:39.705Z,960.48
2016-09-01T08:12:39.649Z,960.47
2016-09-01T08:13:39.648Z,960.48
2016-09-01T08:14:39.656Z,960.5
2016-09-01T08:15:39.647Z,960.49
2016-09-01T08:16:39.647Z,960.52
2016-09-01T08:17:39.658Z,960.48
2016-09-01T08:18:39.655Z,960.51
2016-09-01T08:19:39.649Z,960.52
2016-09-01T08:20:39.647Z,960.55
2016-09-01T08:21:39.649Z,960.53
2016-09-01T08:22:39.645Z,960.55
2016-09-01T08:23:39.644Z,960.54
2016-09-01T08:24:39.645Z,960.56
2016-09-01T08:25:39.645Z,960.53
2016-09-01T08:26:39.649Z,960.55
2016-09-01T08:27:39.645Z,960.54
2016-09-01T08:28:39.646Z,960.54
2016-09-01T08:29:39.645Z,960.58
2016-09-01T08:30:39.646Z,960.55
2016-09-01T08:31:39.644Z,960.55
2016-09-01T08:32:39.644Z,960.51
2016-09-01T08:33:39.646Z,960.53
2016-09-01T08:34:39.641Z,960.54
2016-09-01T08:35:39.644Z,960.53
2016-09-01T08:36:39.643Z,960.55
2016-09-01T08:37:39.645Z,960.55
2016-09-01T08:38:39.643Z,960.54
2016-09-01T08:39:39.646Z,960.57
2016-09-01T08:40:39.646Z,960.57
2016-09-01T08:41:39.645Z,960.55
2016-09-01T08:42:39.641Z,960.53
2016-09-01T08:43:39.657Z,960.55
2016-09-01T08:44:39.644Z,960.47
2016-09-01T08:45:39.646Z,960.48
2016-09-01T08:46:39.658Z,960.47
2016-09-01T08:47:39.648Z,960.43
2016-09-01T08:48:39.644Z,960.46
2016-09-01T08:49:39.643Z,960.48
2016-09-01T08:50:39.642Z,960.45
2016-09-01T08:51:39.642Z,960.41
2016-09-01T08:52:39.644Z,960.46
2016-09-01T08:53:39.644Z,960.44
2016-09-01T08:54:39.642Z,960.45
2016-09-01T08:55:39.647Z,960.42
2016-09-01T08:56:39.641Z,960.38
2016-09-01T08:57:39.648Z,960.38
2016-09-01T08:58:39.643Z,960.37
2016-09-01T08:59:39.648Z,960.34
2016-09-01T09:00:39.659Z,960.38
2016-09-01T09:01:39.643Z,960.37
2016-09-01T09:02:39.647Z,960.33
2016-09-01T09:03:39.643Z,960.36
2016-09-01T09:04:39.644Z,960.35
2016-09-01T09:05:39.645Z,960.37
2016-09-01T09:06:39.645Z,960.36
2016-09-01T09:07:39.645Z,960.35
2016-09-01T09:08:39.648Z,960.33
2016-09-01T09:09:39.645Z,960.39
2016-09-01T09:10:39.646Z,960.36
2016-09-01T09:11:39.646Z,960.38
2016-09-01T09:12:39.647Z,960.37
2016-09-01T09:13:39.650Z,960.37
2016-09-01T09:14:39.655Z,960.39
2016-09-01T09:15:39.648Z,960.37
2016-09-01T09:16:39.648Z,960.4
2016-09-01T09:17:39.649Z,960.38
2016-09-01T09:18:39.646Z,960.38
2016-09-01T09:19:39.653Z,960.37
2016-09-01T09:20:39.654Z,960.36
2016-09-01T09:21:39.653Z,960.39
2016-09-01T09:22:40.206Z,960.42
2016-09-01T09:23:39.661Z,960.41
2016-09-01T09:24:39.655Z,960.41
2016-09-01T09:25:39.656Z,960.4
2016-09-01T09:26:39.659Z,960.43
2016-09-01T09:27:39.658Z,960.42
2016-09-01T09:28:39.661Z,960.38
2016-09-01T09:29:39.664Z,960.37
2016-09-01T09:30:39.681Z,960.39
2016-09-01T09:31:39.666Z,960.38
2016-09-01T09:32:39.667Z,960.39
2016-09-01T09:33:39.777Z,960.39
2016-09-01T09:34:39.668Z,960.39
2016-09-01T09:35:39.673Z,960.4
2016-09-01T09:36:39.677Z,960.37
2016-09-01T09:37:39.678Z,960.37
2016-09-01T09:38:39.675Z,960.35
2016-09-01T09:39:39.678Z,960.36
2016-09-01T09:40:39.678Z,960.38
2016-09-01T09:41:39.684Z,960.36
2016-09-01T09:42:39.684Z,960.32
2016-09-01T09:43:39.685Z,960.31
2016-09-01T09:44:39.687Z,960.36
2016-09-01T09:45:39.686Z,960.32
2016-09-01T09:46:39.690Z,960.33
2016-09-01T09:47:39.697Z,960.34
2016-09-01T09:48:39.694Z,960.35
2016-09-01T09:49:39.694Z,960.38
2016-09-01T09:50:39.701Z,960.34
2016-09-01T09:51:39.705Z,960.36
2016-09-01T09:52:39.699Z,960.36
2016-09-01T09:53:39.700Z,960.37
2016-09-01T09:54:39.708Z,960.34
2016-09-01T09:55:39.714Z,960.33
2016-09-01T09:56:39.707Z,960.38
2016-09-01T09:57:39.708Z,960.33
2016-09-01T09:58:39.711Z,960.34
2016-09-01T09:59:39.714Z,960.31
2016-09-01T10:00:39.715Z,960.33
2016-09-01T10:01:39.713Z,960.32
2016-09-01T10:02:39.716Z,960.35
2016-09-01T10:03:39.716Z,960.3
2016-09-01T10:04:39.720Z,960.33
2016-09-01T10:05:39.719Z,960.32
2016-09-01T10:06:39.723Z,960.33
2016-09-01T10:07:39.723Z,960.28
2016-09-01T10:08:39.730Z,960.32
2016-09-01T10:09:39.723Z,960.32
2016-09-01T10:10:39.726Z,960.28
2016-09-01T10:11:39.729Z,960.29
2016-09-01T10:12:39.733Z,960.3
2016-09-01T10:13:39.741Z,960.29
2016-09-01T10:14:39.731Z,960.29
2016-09-01T10:15:39.733Z,960.27
2016-09-01T10:16:39.736Z,960.26
2016-09-01T10:17:39.774Z,960.29
2016-09-01T10:18:39.734Z,960.31
2016-09-01T10:19:39.737Z,960.31
2016-09-01T10:20:39.739Z,960.28
2016-09-01T10:21:39.739Z,960.28
2016-09-01T10:22:39.745Z,960.27
2016-09-01T10:23:39.946Z,960.3
2016-09-01T10:24:40.007Z,960.28
2016-09-01T10:25:39.745Z,960.28
2016-09-01T10:26:39.748Z,960.29
2016-09-01T10:27:39.746Z,960.3
2016-09-01T10:28:39.752Z,960.26
2016-09-01T10:29:39.749Z,960.3
2016-09-01T10:30:39.752Z,960.29
2016-09-01T10:31:39.755Z,960.27
2016-09-01T10:32:39.753Z,960.27
2016-09-01T10:33:39.756Z,960.26
2016-09-01T10:34:39.760Z,960.27
2016-09-01T10:35:39.756Z,960.27
2016-09-01T10:36:39.757Z,960.26
2016-09-01T10:37:39.761Z,960.23
2016-09-01T10:38:39.829Z,960.23
2016-09-01T10:39:39.761Z,960.24
2016-09-01T10:40:39.765Z,960.21
2016-09-01T10:41:39.764Z,960.23
2016-09-01T10:42:39.766Z,960.23
2016-09-01T10:43:39.771Z,960.23
2016-09-01T10:44:39.771Z,960.23
2016-09-01T10:45:39.769Z,960.21
2016-09-01T10:46:39.773Z,960.21
2016-09-01T10:47:39.774Z,960.24
2016-09-01T10:48:39.778Z,960.22
2016-09-01T10:49:39.778Z,960.25
2016-09-01T10:50:39.782Z,960.26
2016-09-01T10:52:39.783Z,960.27
2016-09-01T10:53:39.781Z,960.24
2016-09-01T10:54:39.783Z,960.25
2016-09-01T10:55:39.788Z,960.24
2016-09-01T10:56:39.790Z,960.26
2016-09-01T10:57:39.788Z,960.28
2016-09-01T10:58:39.793Z,960.28
2016-09-01T10:59:39.830Z,960.28
2016-09-01T11:00:39.795Z,960.28
2016-09-01T11:01:39.795Z,960.3
2016-09-01T11:02:39.802Z,960.29
2016-09-01T11:03:39.800Z,960.25
2016-09-01T11:04:39.800Z,960.25
2016-09-01T11:05:39.804Z,960.29
2016-09-01T11:06:39.804Z,960.23
2016-09-01T11:07:39.808Z,960.21
2016-09-01T11:08:39.810Z,960.18
2016-09-01T11:09:39.817Z,960.2
2016-09-01T11:10:39.812Z,960.2
2016-09-01T11:11:39.834Z,960.18
2016-09-01T11:12:39.823Z,960.19
2016-09-01T11:13:39.821Z,960.22
2016-09-01T11:14:39.825Z,960.21
2016-09-01T11:15:39.828Z,960.23
2016-09-01T11:16:39.830Z,960.19
2016-09-01T11:17:39.843Z,960.21
2016-09-01T11:18:39.833Z,960.18
2016-09-01T11:19:39.831Z,960.19
2016-09-01T11:20:40.208Z,960.18
2016-09-01T11:21:39.836Z,960.18
2016-09-01T11:22:39.844Z,960.16
2016-09-01T11:23:39.845Z,960.15
2016-09-01T11:24:40.208Z,960.16
2016-09-01T11:25:39.846Z,960.15
2016-09-01T11:26:39.848Z,960.13
2016-09-01T11:27:39.847Z,960.18
2016-09-01T11:28:39.854Z,960.14
2016-09-01T11:29:39.859Z,960.1
2016-09-01T11:30:39.861Z,960.11
2016-09-01T11:31:39.870Z,960.13
2016-09-01T11:32:39.889Z,960.15
2016-09-01T11:33:39.875Z,960.1
2016-09-01T11:41:40.062Z,960.06
2016-09-01T11:42:40.229Z,960.04
2016-09-01T11:43:40.080Z,960.02
2016-09-01T11:44:40.089Z,960.03
2016-09-01T11:45:40.097Z,960
2016-09-01T11:46:40.154Z,959.98
2016-09-01T11:47:40.013Z,959.97
2016-09-01T11:48:40.019Z,959.96
2016-09-01T11:49:40.025Z,959.92
2016-09-01T11:50:40.027Z,959.92
2016-09-01T11:51:40.031Z,959.9
2016-09-01T11:52:40.040Z,959.85
2016-09-01T11:53:40.058Z,959.87
2016-09-01T11:54:40.062Z,959.84
2016-09-01T11:55:40.063Z,959.88
2016-09-01T11:56:40.068Z,959.83
2016-09-01T11:57:40.082Z,959.83
2016-09-01T11:58:40.099Z,959.82
2016-09-01T11:59:40.185Z,959.85
2016-09-01T12:00:40.019Z,959.8
2016-09-01T12:01:40.009Z,959.8
2016-09-01T12:02:40.016Z,959.77
2016-09-01T12:03:40.034Z,959.75
2016-09-01T12:04:40.029Z,959.76
2016-09-01T12:05:40.030Z,959.74
2016-09-01T12:06:40.041Z,959.75
2016-09-01T12:07:40.049Z,959.73
2016-09-01T12:08:40.060Z,959.73
2016-09-01T12:09:40.069Z,959.69
2016-09-01T12:10:40.247Z,959.68
2016-09-01T12:11:40.115Z,959.69
2016-09-01T12:12:40.123Z,959.66
2016-09-01T12:13:40.149Z,959.66
2016-09-01T12:18:40.029Z,959.63
2016-09-01T12:19:40.038Z,959.6
2016-09-01T12:20:40.039Z,959.61
2016-09-01T12:21:40.053Z,959.57
2016-09-01T12:22:40.055Z,959.65
2016-09-01T12:23:40.103Z,959.61
2016-09-01T12:24:40.107Z,959.64
2016-09-01T12:25:40.118Z,959.64
2016-09-01T12:26:40.127Z,959.66
2016-09-01T12:27:40.138Z,959.64
2016-09-01T12:28:40.141Z,959.62
2016-09-01T12:29:40.148Z,959.6
2016-09-01T12:30:40.152Z,959.64
2016-09-01T12:31:40.160Z,959.62
2016-09-01T12:32:40.169Z,959.65
2016-09-01T12:33:40.176Z,959.66
2016-09-01T12:34:40.184Z,959.65
2016-09-01T12:35:40.186Z,959.61
2016-09-01T12:36:40.097Z,959.59
2016-09-01T12:37:40.102Z,959.59
2016-09-01T12:38:40.115Z,959.59
2016-09-01T12:39:40.123Z,959.58
2016-09-01T12:40:40.123Z,959.56
2016-09-01T12:41:40.152Z,959.57
2016-09-01T12:42:40.136Z,959.58
2016-09-01T12:43:40.147Z,959.56